Airfield :
LOGIN :

Register | Disclaimer

   EN    FR    IT 

 










Legend :    VFR   Marginal VFR   IFR   Intensive IFR   Very Intensive IFR
Visi :
Ceiling :
>= 8 km
>= 3000ft
5 to 8 km
1000 to 3000 ft
1500m to 5 km
500 to 1000 ft
800 to 1500m
200 to 500 ft
< 800m
< 200 ft
Symbols :   Thunderstorms  Fog  Heavy snow  Heavy precipitations  Wind > 20 kt
SIGMETs :     Misc.  Thunderstorms  Icing  Turbulence  Mountain Waves  Volcanic Ashes






- Airport Elevation : 1267 ft
- IATA code : CUF


LIMZ - Cuneo Levaldigi

CURRENT METAR :
  • 062250Z AUTO 19005KT 9999 SCT087/// 22/18 Q1018

EXPIRED METARs :
  • 062220Z AUTO 23003KT 9999 BKN078/// 23/18 Q1018
  • 062150Z AUTO 24003KT 200V270 9999 BKN074/// 23/18 Q1018
  • 062120Z AUTO 23006KT 9999 FEW075/// 23/18 Q1018
  • 062050Z AUTO 21009KT 9999 NCD 23/18 Q1017
  • 062020Z AUTO 20003KT 9999 FEW110/// 24/18 Q1017

TAF TAF LIMZ
Valid from the 06 at 18:00 until the 07 at 18:00 UTC


061700Z 0618/0718 VRB05KT 9999 FEW030
TEMPO 0618/0624 4000 TSRA



MET'MAP, your aeronautical weather chart ! - Copyright ORBIFLY December 2007 - Disclaimer

ORBIFLY MET'MAP TEAM :

Programming & Development : Alexandra Zaïnal
Original concept : Baudouin d'Aumeries
Technical & hardware support : Manuel Goepfert
Assistance : Marc-Olivier Méhu




SOURCES & CREDITS :

   NOAA